BMA4DP EGLL-EGAC
Flight info
| Callsign | BMA4DP |
|---|---|
| Flight time | 0h 56m |
| Altitude | 36000 |
| Route | ULTIB T420 TNT UL28 RODOL UM65 TENSO L603 BELOX DCT REMSI DCT NINEB M148 MAGEE |
| Aircraft | A321/M-SDE3FGHIRWY/LB1 |
Departure
| Time | 2026-04-21 18:34 |
|---|---|
| Airport | London Heathrow Airport (EGLL) |
Arrival
| Time | 2026-04-21 19:30 |
|---|---|
| Airport | George Best Belfast City Airport (EGAC) |
| Time | Latitude | Longitude | Altitude | Speed | Heading |
|---|---|---|---|---|---|
| 2026-04-21 18:12 | 51.47446 | -0.45823 | 86 ft | 0 kts | 180° |
| 2026-04-21 18:22 | 51.47460 | -0.45823 | 88 ft | 3 kts | 180° |
| 2026-04-21 18:23 | 51.47481 | -0.45823 | 86 ft | 3 kts | 180° |
| 2026-04-21 18:23 | 51.47500 | -0.45823 | 86 ft | 3 kts | 191° |
| 2026-04-21 18:23 | 51.47514 | -0.45814 | 90 ft | 3 kts | 245° |
| 2026-04-21 18:23 | 51.47517 | -0.45795 | 89 ft | 1 kts | 277° |
| 2026-04-21 18:24 | 51.47515 | -0.45770 | 89 ft | 3 kts | 277° |
| 2026-04-21 18:24 | 51.47514 | -0.45755 | 89 ft | 0 kts | 277° |
| 2026-04-21 18:26 | 51.47516 | -0.45801 | 90 ft | 15 kts | 273° |
| 2026-04-21 18:26 | 51.47517 | -0.46001 | 86 ft | 18 kts | 270° |
| 2026-04-21 18:26 | 51.47516 | -0.46203 | 86 ft | 18 kts | 270° |
| 2026-04-21 18:26 | 51.47516 | -0.46408 | 86 ft | 18 kts | 270° |
| 2026-04-21 18:27 | 51.47515 | -0.46615 | 86 ft | 19 kts | 270° |
| 2026-04-21 18:27 | 51.47497 | -0.46767 | 87 ft | 13 kts | 251° |
| 2026-04-21 18:27 | 51.47477 | -0.46895 | 90 ft | 11 kts | 224° |
| 2026-04-21 18:27 | 51.47432 | -0.46888 | 86 ft | 7 kts | 170° |
| 2026-04-21 18:28 | 51.47381 | -0.46870 | 90 ft | 9 kts | 168° |
| 2026-04-21 18:28 | 51.47310 | -0.46865 | 86 ft | 11 kts | 180° |
| 2026-04-21 18:28 | 51.47230 | -0.46866 | 86 ft | 11 kts | 180° |
| 2026-04-21 18:28 | 51.47153 | -0.46865 | 86 ft | 11 kts | 182° |
| 2026-04-21 18:29 | 51.47055 | -0.46863 | 86 ft | 17 kts | 179° |
| 2026-04-21 18:29 | 51.46938 | -0.46862 | 88 ft | 16 kts | 180° |
| 2026-04-21 18:29 | 51.46825 | -0.46862 | 88 ft | 16 kts | 179° |
| 2026-04-21 18:29 | 51.46713 | -0.46860 | 86 ft | 14 kts | 180° |
| 2026-04-21 18:30 | 51.46657 | -0.46927 | 89 ft | 11 kts | 263° |
| 2026-04-21 18:30 | 51.46656 | -0.47055 | 90 ft | 13 kts | 269° |
| 2026-04-21 18:30 | 51.46655 | -0.47205 | 86 ft | 14 kts | 269° |
| 2026-04-21 18:30 | 51.46656 | -0.47354 | 86 ft | 12 kts | 269° |
| 2026-04-21 18:31 | 51.46648 | -0.47480 | 88 ft | 9 kts | 237° |
| 2026-04-21 18:31 | 51.46629 | -0.47493 | 87 ft | 0 kts | 183° |
| 2026-04-21 18:31 | 51.46629 | -0.47492 | 90 ft | 0 kts | 179° |
| 2026-04-21 18:32 | 51.46626 | -0.47492 | 90 ft | 3 kts | 179° |
| 2026-04-21 18:32 | 51.46554 | -0.47493 | 90 ft | 15 kts | 180° |
| 2026-04-21 18:32 | 51.46486 | -0.47493 | 87 ft | 5 kts | 116° |
| 2026-04-21 18:32 | 51.46482 | -0.47446 | 86 ft | 1 kts | 89° |
| 2026-04-21 18:33 | 51.46483 | -0.47369 | 88 ft | 33 kts | 89° |
| 2026-04-21 18:33 | 51.46486 | -0.46533 | 92 ft | 112 kts | 90° |
| 2026-04-21 18:33 | 51.46486 | -0.44983 | 264 ft | 154 kts | 88° |
| 2026-04-21 18:34 | 51.46497 | -0.43237 | 943 ft | 163 kts | 85° |
| 2026-04-21 18:34 | 51.46668 | -0.41350 | 1415 ft | 182 kts | 68° |
| 2026-04-21 18:34 | 51.47434 | -0.39610 | 1656 ft | 206 kts | 52° |
| 2026-04-21 18:34 | 51.48391 | -0.37736 | 2184 ft | 222 kts | 52° |
| 2026-04-21 18:35 | 51.49055 | -0.36432 | 2789 ft | 223 kts | 53° |
| 2026-04-21 18:35 | 51.50373 | -0.33830 | 3955 ft | 228 kts | 54° |
| 2026-04-21 18:35 | 51.51368 | -0.31854 | 4766 ft | 232 kts | 54° |
| 2026-04-21 18:35 | 51.52322 | -0.29739 | 5562 ft | 236 kts | 66° |
| 2026-04-21 18:36 | 51.52923 | -0.27224 | 6202 ft | 246 kts | 72° |
| 2026-04-21 18:36 | 51.53484 | -0.24571 | 6991 ft | 250 kts | 73° |
| 2026-04-21 18:36 | 51.54037 | -0.21923 | 7719 ft | 255 kts | 71° |
| 2026-04-21 18:36 | 51.55011 | -0.19522 | 8448 ft | 266 kts | 41° |
| 2026-04-21 18:37 | 51.56733 | -0.18357 | 9182 ft | 280 kts | 8° |
| 2026-04-21 18:37 | 51.58677 | -0.18920 | 10003 ft | 294 kts | 336° |
| 2026-04-21 18:37 | 51.60234 | -0.21115 | 10714 ft | 305 kts | 308° |
| 2026-04-21 18:37 | 51.61535 | -0.23855 | 11178 ft | 317 kts | 316° |
| 2026-04-21 18:38 | 51.63307 | -0.26141 | 11321 ft | 336 kts | 333° |
| 2026-04-21 18:38 | 51.65516 | -0.27596 | 11459 ft | 353 kts | 343° |
| 2026-04-21 18:38 | 51.67836 | -0.29189 | 11782 ft | 369 kts | 336° |
| 2026-04-21 18:38 | 51.70098 | -0.31214 | 12383 ft | 375 kts | 332° |
| 2026-04-21 18:39 | 51.72316 | -0.33463 | 13027 ft | 379 kts | 330° |
| 2026-04-21 18:39 | 51.74531 | -0.35799 | 13702 ft | 381 kts | 329° |
| 2026-04-21 18:39 | 51.76761 | -0.38139 | 14321 ft | 384 kts | 329° |
| 2026-04-21 18:39 | 51.79024 | -0.40450 | 14862 ft | 385 kts | 330° |
| 2026-04-21 18:40 | 51.81316 | -0.42722 | 15449 ft | 387 kts | 330° |
| 2026-04-21 18:40 | 51.83628 | -0.44969 | 16058 ft | 389 kts | 332° |
| 2026-04-21 18:40 | 51.85171 | -0.46454 | 16446 ft | 391 kts | 332° |
| 2026-04-21 18:40 | 51.88287 | -0.49451 | 17204 ft | 394 kts | 332° |
| 2026-04-21 18:41 | 51.90649 | -0.51730 | 17748 ft | 396 kts | 330° |
| 2026-04-21 18:41 | 51.93017 | -0.54028 | 18296 ft | 399 kts | 331° |
| 2026-04-21 18:41 | 51.95402 | -0.56353 | 18812 ft | 401 kts | 330° |
| 2026-04-21 18:41 | 51.97789 | -0.58690 | 19396 ft | 399 kts | 330° |
| 2026-04-21 18:42 | 52.00151 | -0.61006 | 20053 ft | 397 kts | 329° |
| 2026-04-21 18:42 | 52.02511 | -0.63318 | 20590 ft | 396 kts | 329° |
| 2026-04-21 18:42 | 52.04884 | -0.65644 | 21126 ft | 398 kts | 329° |
| 2026-04-21 18:42 | 52.07262 | -0.67974 | 21593 ft | 400 kts | 329° |
| 2026-04-21 18:43 | 52.09647 | -0.70316 | 22070 ft | 402 kts | 329° |
| 2026-04-21 18:43 | 52.12010 | -0.72645 | 22559 ft | 403 kts | 328° |
| 2026-04-21 18:43 | 52.14416 | -0.75016 | 23087 ft | 404 kts | 328° |
| 2026-04-21 18:43 | 52.16814 | -0.77384 | 23586 ft | 404 kts | 328° |
| 2026-04-21 18:44 | 52.19219 | -0.79764 | 24072 ft | 404 kts | 328° |
| 2026-04-21 18:44 | 52.21628 | -0.82152 | 24494 ft | 405 kts | 328° |
| 2026-04-21 18:44 | 52.24039 | -0.84543 | 24909 ft | 405 kts | 328° |
| 2026-04-21 18:44 | 52.26448 | -0.86933 | 25331 ft | 406 kts | 328° |
| 2026-04-21 18:45 | 52.28863 | -0.89328 | 25743 ft | 407 kts | 328° |
| 2026-04-21 18:45 | 52.31295 | -0.91741 | 25969 ft | 413 kts | 328° |
| 2026-04-21 18:45 | 52.33763 | -0.94197 | 26297 ft | 415 kts | 328° |
| 2026-04-21 18:45 | 52.36228 | -0.96656 | 26700 ft | 416 kts | 327° |
| 2026-04-21 18:46 | 52.38692 | -0.99116 | 27104 ft | 415 kts | 327° |
| 2026-04-21 18:46 | 52.41152 | -1.01575 | 27551 ft | 413 kts | 327° |
| 2026-04-21 18:46 | 52.43602 | -1.04027 | 27922 ft | 412 kts | 327° |
| 2026-04-21 18:46 | 52.46048 | -1.06483 | 28229 ft | 412 kts | 327° |
| 2026-04-21 18:47 | 52.48491 | -1.08940 | 28548 ft | 412 kts | 326° |
| 2026-04-21 18:47 | 52.50934 | -1.11395 | 28971 ft | 409 kts | 326° |
| 2026-04-21 18:47 | 52.53355 | -1.13832 | 29422 ft | 407 kts | 326° |
| 2026-04-21 18:47 | 52.55755 | -1.16252 | 29856 ft | 404 kts | 326° |
| 2026-04-21 18:48 | 52.58110 | -1.18625 | 30316 ft | 400 kts | 326° |
| 2026-04-21 18:48 | 52.60504 | -1.21040 | 30685 ft | 398 kts | 326° |
| 2026-04-21 18:48 | 52.62838 | -1.23395 | 30968 ft | 398 kts | 326° |
| 2026-04-21 18:48 | 52.65196 | -1.25780 | 31247 ft | 398 kts | 326° |
| 2026-04-21 18:49 | 52.67558 | -1.28180 | 31520 ft | 399 kts | 326° |
| 2026-04-21 18:49 | 52.69800 | -1.30461 | 31781 ft | 399 kts | 326° |
| 2026-04-21 18:49 | 52.70486 | -1.31160 | 31860 ft | 399 kts | 326° |
| 2026-04-21 18:49 | 52.73620 | -1.34354 | 32389 ft | 400 kts | 326° |
| 2026-04-21 18:50 | 52.75988 | -1.36762 | 32684 ft | 400 kts | 327° |
| 2026-04-21 18:50 | 52.78366 | -1.39183 | 32908 ft | 403 kts | 327° |
| 2026-04-21 18:50 | 52.80752 | -1.41621 | 33122 ft | 404 kts | 326° |
| 2026-04-21 18:50 | 52.83147 | -1.44075 | 33368 ft | 405 kts | 327° |
| 2026-04-21 18:51 | 52.85542 | -1.46532 | 33615 ft | 406 kts | 327° |
| 2026-04-21 18:51 | 52.87947 | -1.49000 | 33837 ft | 407 kts | 327° |
| 2026-04-21 18:51 | 52.90369 | -1.51482 | 34101 ft | 408 kts | 327° |
| 2026-04-21 18:51 | 52.92750 | -1.53924 | 34389 ft | 406 kts | 326° |
| 2026-04-21 18:52 | 52.95184 | -1.56423 | 34657 ft | 406 kts | 326° |
| 2026-04-21 18:52 | 52.97588 | -1.58895 | 34856 ft | 407 kts | 326° |
| 2026-04-21 18:52 | 52.99993 | -1.61375 | 35054 ft | 408 kts | 327° |
| 2026-04-21 18:52 | 53.02415 | -1.63884 | 35181 ft | 411 kts | 326° |
| 2026-04-21 18:53 | 53.04841 | -1.66447 | 35312 ft | 414 kts | 323° |
| 2026-04-21 18:53 | 53.06940 | -1.69695 | 35467 ft | 414 kts | 308° |
| 2026-04-21 18:53 | 53.08645 | -1.73546 | 35623 ft | 415 kts | 306° |
| 2026-04-21 18:53 | 53.10330 | -1.77429 | 35797 ft | 417 kts | 306° |
| 2026-04-21 18:54 | 53.12010 | -1.81324 | 35975 ft | 418 kts | 306° |
| 2026-04-21 18:54 | 53.13701 | -1.85260 | 36148 ft | 419 kts | 306° |
| 2026-04-21 18:54 | 53.15396 | -1.89217 | 36328 ft | 420 kts | 306° |
| 2026-04-21 18:55 | 53.18257 | -1.95898 | 36399 ft | 424 kts | 306° |
| 2026-04-21 18:55 | 53.22239 | -2.05213 | 36373 ft | 424 kts | 305° |
| 2026-04-21 18:56 | 53.25653 | -2.13239 | 36384 ft | 425 kts | 305° |
| 2026-04-21 18:56 | 53.28494 | -2.19934 | 36383 ft | 425 kts | 305° |
| 2026-04-21 18:57 | 53.31912 | -2.28005 | 36411 ft | 425 kts | 305° |
| 2026-04-21 18:57 | 53.35327 | -2.36099 | 36417 ft | 426 kts | 305° |
| 2026-04-21 18:58 | 53.38739 | -2.44220 | 36418 ft | 426 kts | 305° |
| 2026-04-21 18:58 | 53.42149 | -2.52351 | 36417 ft | 427 kts | 305° |
| 2026-04-21 18:59 | 53.45559 | -2.60500 | 36406 ft | 427 kts | 305° |
| 2026-04-21 18:59 | 53.48960 | -2.68657 | 36414 ft | 426 kts | 304° |
| 2026-04-21 19:00 | 53.52345 | -2.76820 | 36420 ft | 426 kts | 304° |
| 2026-04-21 19:00 | 53.55727 | -2.84990 | 36423 ft | 425 kts | 304° |
| 2026-04-21 19:01 | 53.59100 | -2.93150 | 36420 ft | 425 kts | 304° |
| 2026-04-21 19:01 | 53.62468 | -3.01330 | 36418 ft | 425 kts | 304° |
| 2026-04-21 19:02 | 53.65805 | -3.09474 | 36432 ft | 425 kts | 304° |
| 2026-04-21 19:02 | 53.69152 | -3.17679 | 36424 ft | 425 kts | 304° |
| 2026-04-21 19:03 | 53.72506 | -3.25916 | 36434 ft | 425 kts | 304° |
| 2026-04-21 19:03 | 53.75849 | -3.34157 | 36425 ft | 426 kts | 304° |
| 2026-04-21 19:04 | 53.79193 | -3.42430 | 36421 ft | 426 kts | 304° |
| 2026-04-21 19:04 | 53.82510 | -3.50661 | 36421 ft | 426 kts | 304° |
| 2026-04-21 19:05 | 53.85849 | -3.58968 | 36413 ft | 426 kts | 304° |
| 2026-04-21 19:05 | 53.89183 | -3.67283 | 36411 ft | 426 kts | 303° |
| 2026-04-21 19:06 | 53.92518 | -3.75613 | 36419 ft | 426 kts | 303° |
| 2026-04-21 19:06 | 53.95836 | -3.83956 | 36425 ft | 427 kts | 303° |
| 2026-04-21 19:07 | 53.99147 | -3.92330 | 36129 ft | 426 kts | 303° |
| 2026-04-21 19:07 | 54.00794 | -3.96497 | 35881 ft | 424 kts | 303° |
| 2026-04-21 19:07 | 54.02438 | -4.00650 | 35634 ft | 422 kts | 303° |
| 2026-04-21 19:07 | 54.04073 | -4.04781 | 35390 ft | 420 kts | 303° |
| 2026-04-21 19:08 | 54.05699 | -4.08895 | 35136 ft | 418 kts | 303° |
| 2026-04-21 19:08 | 54.07315 | -4.12997 | 34895 ft | 416 kts | 303° |
| 2026-04-21 19:08 | 54.08917 | -4.17080 | 34683 ft | 414 kts | 303° |
| 2026-04-21 19:08 | 54.10513 | -4.21165 | 34439 ft | 413 kts | 303° |
| 2026-04-21 19:09 | 54.12097 | -4.25228 | 34150 ft | 411 kts | 303° |
| 2026-04-21 19:09 | 54.13657 | -4.29229 | 33887 ft | 411 kts | 303° |
| 2026-04-21 19:09 | 54.15235 | -4.33277 | 33614 ft | 410 kts | 303° |
| 2026-04-21 19:09 | 54.16819 | -4.37335 | 33362 ft | 410 kts | 303° |
| 2026-04-21 19:10 | 54.18397 | -4.41392 | 33092 ft | 410 kts | 303° |
| 2026-04-21 19:10 | 54.19970 | -4.45451 | 32821 ft | 410 kts | 303° |
| 2026-04-21 19:10 | 54.21541 | -4.49514 | 32559 ft | 410 kts | 303° |
| 2026-04-21 19:10 | 54.23113 | -4.53588 | 32293 ft | 409 kts | 302° |
| 2026-04-21 19:11 | 54.24333 | -4.57962 | 32033 ft | 408 kts | 287° |
| 2026-04-21 19:11 | 54.24846 | -4.62742 | 31778 ft | 410 kts | 279° |
| 2026-04-21 19:11 | 54.25220 | -4.67578 | 31528 ft | 410 kts | 279° |
| 2026-04-21 19:11 | 54.25582 | -4.72412 | 31277 ft | 410 kts | 279° |
| 2026-04-21 19:12 | 54.25941 | -4.77242 | 31030 ft | 409 kts | 279° |
| 2026-04-21 19:12 | 54.26306 | -4.82072 | 30752 ft | 409 kts | 279° |
| 2026-04-21 19:12 | 54.26682 | -4.86856 | 29566 ft | 405 kts | 279° |
| 2026-04-21 19:12 | 54.27060 | -4.91656 | 27931 ft | 410 kts | 279° |
| 2026-04-21 19:13 | 54.27438 | -4.96483 | 26229 ft | 419 kts | 279° |
| 2026-04-21 19:13 | 54.27822 | -5.01434 | 25445 ft | 424 kts | 279° |
| 2026-04-21 19:13 | 54.28211 | -5.06460 | 24912 ft | 427 kts | 279° |
| 2026-04-21 19:13 | 54.28599 | -5.11502 | 24391 ft | 427 kts | 279° |
| 2026-04-21 19:14 | 54.28985 | -5.16548 | 23856 ft | 426 kts | 279° |
| 2026-04-21 19:14 | 54.29370 | -5.21560 | 23237 ft | 425 kts | 279° |
| 2026-04-21 19:14 | 54.29768 | -5.26575 | 22640 ft | 425 kts | 279° |
| 2026-04-21 19:14 | 54.30181 | -5.31590 | 22044 ft | 425 kts | 279° |
| 2026-04-21 19:15 | 54.30608 | -5.36585 | 21465 ft | 422 kts | 279° |
| 2026-04-21 19:15 | 54.31056 | -5.41541 | 20899 ft | 420 kts | 279° |
| 2026-04-21 19:15 | 54.31511 | -5.46468 | 20344 ft | 417 kts | 279° |
| 2026-04-21 19:15 | 54.31976 | -5.51388 | 19796 ft | 419 kts | 279° |
| 2026-04-21 19:16 | 54.32459 | -5.56311 | 19269 ft | 421 kts | 279° |
| 2026-04-21 19:16 | 54.32959 | -5.61279 | 18741 ft | 424 kts | 279° |
| 2026-04-21 19:16 | 54.33467 | -5.66281 | 18141 ft | 427 kts | 279° |
| 2026-04-21 19:16 | 54.33962 | -5.71193 | 17544 ft | 409 kts | 279° |
| 2026-04-21 19:17 | 54.34893 | -5.80361 | 16389 ft | 374 kts | 278° |
| 2026-04-21 19:17 | 54.35330 | -5.84677 | 15835 ft | 361 kts | 279° |
| 2026-04-21 19:17 | 54.35753 | -5.88826 | 15270 ft | 344 kts | 279° |
| 2026-04-21 19:18 | 54.36161 | -5.92782 | 14731 ft | 331 kts | 279° |
| 2026-04-21 19:18 | 54.36554 | -5.96618 | 14189 ft | 324 kts | 278° |
| 2026-04-21 19:18 | 54.36943 | -6.00425 | 13600 ft | 323 kts | 279° |
| 2026-04-21 19:18 | 54.37326 | -6.04201 | 12979 ft | 320 kts | 279° |
| 2026-04-21 19:19 | 54.37701 | -6.07933 | 12194 ft | 315 kts | 279° |
| 2026-04-21 19:19 | 54.38068 | -6.11601 | 11432 ft | 310 kts | 278° |
| 2026-04-21 19:19 | 54.38431 | -6.15213 | 10661 ft | 306 kts | 278° |
| 2026-04-21 19:19 | 54.38633 | -6.18796 | 9903 ft | 299 kts | 262° |
| 2026-04-21 19:20 | 54.38034 | -6.22114 | 9093 ft | 287 kts | 234° |
| 2026-04-21 19:20 | 54.36847 | -6.24792 | 8318 ft | 280 kts | 226° |
| 2026-04-21 19:20 | 54.35413 | -6.26926 | 7550 ft | 267 kts | 201° |
| 2026-04-21 19:20 | 54.33684 | -6.27619 | 6941 ft | 247 kts | 170° |
| 2026-04-21 19:21 | 54.32141 | -6.26778 | 6432 ft | 226 kts | 140° |
| 2026-04-21 19:21 | 54.31212 | -6.24822 | 5907 ft | 211 kts | 108° |
| 2026-04-21 19:21 | 54.31130 | -6.22394 | 5398 ft | 205 kts | 75° |
| 2026-04-21 19:21 | 54.31918 | -6.20382 | 4867 ft | 209 kts | 43° |
| 2026-04-21 19:22 | 54.33144 | -6.19089 | 4357 ft | 207 kts | 35° |
| 2026-04-21 19:22 | 54.34401 | -6.17990 | 3986 ft | 195 kts | 34° |
| 2026-04-21 19:22 | 54.35572 | -6.17027 | 3989 ft | 183 kts | 34° |
| 2026-04-21 19:22 | 54.36714 | -6.16102 | 4020 ft | 180 kts | 34° |
| 2026-04-21 19:23 | 54.37844 | -6.15192 | 4021 ft | 179 kts | 33° |
| 2026-04-21 19:23 | 54.38971 | -6.14287 | 4039 ft | 179 kts | 34° |
| 2026-04-21 19:23 | 54.40097 | -6.13382 | 4027 ft | 179 kts | 33° |
| 2026-04-21 19:23 | 54.41217 | -6.12467 | 4022 ft | 178 kts | 35° |
| 2026-04-21 19:24 | 54.42102 | -6.11138 | 4019 ft | 167 kts | 60° |
| 2026-04-21 19:24 | 54.42940 | -6.09718 | 4030 ft | 174 kts | 44° |
| 2026-04-21 19:24 | 54.43890 | -6.08579 | 4024 ft | 158 kts | 43° |
| 2026-04-21 19:24 | 54.44781 | -6.07518 | 3963 ft | 154 kts | 44° |
| 2026-04-21 19:25 | 54.45658 | -6.06475 | 3803 ft | 152 kts | 44° |
| 2026-04-21 19:25 | 54.46524 | -6.05447 | 3617 ft | 152 kts | 44° |
| 2026-04-21 19:25 | 54.47392 | -6.04417 | 3409 ft | 151 kts | 43° |
| 2026-04-21 19:25 | 54.48254 | -6.03395 | 3209 ft | 150 kts | 43° |
| 2026-04-21 19:26 | 54.49120 | -6.02367 | 3004 ft | 151 kts | 44° |
| 2026-04-21 19:26 | 54.49984 | -6.01343 | 2795 ft | 150 kts | 44° |
| 2026-04-21 19:26 | 54.50842 | -6.00324 | 2589 ft | 149 kts | 44° |
| 2026-04-21 19:26 | 54.51686 | -5.99323 | 2381 ft | 142 kts | 44° |
| 2026-04-21 19:27 | 54.52469 | -5.98425 | 2142 ft | 131 kts | 44° |
| 2026-04-21 19:27 | 54.53211 | -5.97563 | 1858 ft | 127 kts | 45° |
| 2026-04-21 19:27 | 54.53900 | -5.96661 | 1699 ft | 125 kts | 46° |
| 2026-04-21 19:27 | 54.54624 | -5.95821 | 1575 ft | 126 kts | 41° |
| 2026-04-21 19:28 | 54.55359 | -5.94987 | 1413 ft | 127 kts | 43° |
| 2026-04-21 19:28 | 54.56090 | -5.94120 | 1211 ft | 129 kts | 44° |
| 2026-04-21 19:28 | 54.56823 | -5.93233 | 1103 ft | 129 kts | 40° |
| 2026-04-21 19:28 | 54.57569 | -5.92381 | 938 ft | 129 kts | 41° |
| 2026-04-21 19:29 | 54.58299 | -5.91499 | 835 ft | 129 kts | 40° |
| 2026-04-21 19:29 | 54.59030 | -5.90584 | 608 ft | 132 kts | 39° |
| 2026-04-21 19:29 | 54.59775 | -5.89697 | 365 ft | 130 kts | 38° |
| 2026-04-21 19:29 | 54.60543 | -5.88773 | 226 ft | 134 kts | 40° |
| 2026-04-21 19:30 | 54.61272 | -5.87900 | 32 ft | 123 kts | 39° |
| 2026-04-21 19:30 | 54.61890 | -5.87158 | 19 ft | 82 kts | 35° |
| 2026-04-21 19:30 | 54.62202 | -5.86785 | 20 ft | 37 kts | 35° |
| 2026-04-21 19:30 | 54.62340 | -5.86619 | 21 ft | 16 kts | 36° |
| 2026-04-21 19:31 | 54.62410 | -5.86495 | 21 ft | 14 kts | 73° |
| 2026-04-21 19:31 | 54.62459 | -5.86466 | 20 ft | 5 kts | 288° |
| 2026-04-21 19:31 | 54.62419 | -5.86522 | 21 ft | 15 kts | 214° |
| 2026-04-21 19:31 | 54.62291 | -5.86675 | 20 ft | 26 kts | 214° |
| 2026-04-21 19:32 | 54.62140 | -5.86853 | 16 ft | 29 kts | 214° |
| 2026-04-21 19:32 | 54.61967 | -5.87060 | 16 ft | 31 kts | 214° |
| 2026-04-21 19:32 | 54.61850 | -5.87177 | 19 ft | 13 kts | 174° |
| 2026-04-21 19:32 | 54.61788 | -5.87060 | 20 ft | 12 kts | 124° |
| 2026-04-21 19:33 | 54.61754 | -5.86993 | 21 ft | 11 kts | 155° |
| 2026-04-21 19:33 | 54.61656 | -5.87074 | 21 ft | 13 kts | 214° |
| 2026-04-21 19:33 | 54.61580 | -5.87165 | 21 ft | 13 kts | 214° |
| 2026-04-21 19:33 | 54.61511 | -5.87224 | 21 ft | 10 kts | 167° |
| 2026-04-21 19:34 | 54.61481 | -5.87202 | 21 ft | 3 kts | 157° |
| 2026-04-21 19:34 | 54.61464 | -5.87189 | 22 ft | 1 kts | 155° |
| 2026-04-21 19:34 | 54.61463 | -5.87189 | 22 ft | 0 kts | 155° |